This is the latest recevied weather packets stored in our database for station/object W4CAT-13. If no packets are shown the sender has not sent any weather packets the latest 10 day(s).
| Time | Temp. | Humidity | Pressure | Rain* | Wind** | Luminosity | Snow |
|---|---|---|---|---|---|---|---|
| 1778030149 | 15.56° C | 91% | 971.6 hPa | 0.51 mm | - | - | - |
| 1778029249 | 15.56° C | 90% | 971.6 hPa | 1.52 mm | - | - | - |
| 1778028349 | 15.56° C | 88% | 971.9 hPa | 1.52 mm | - | - | - |
| 1778027449 | 15° C | 91% | 971.6 hPa | 2.29 mm | - | - | - |
| 1778026549 | 15° C | 93% | 971.6 hPa | 4.32 mm | - | - | - |
| 1778025649 | 15° C | 92% | 971.2 hPa | 3.3 mm | - | - | - |
| 1778024748 | 15.56° C | 89% | 971.9 hPa | 3.3 mm | - | - | - |
| 1778023848 | 17.22° C | 77% | 972.2 hPa | 2.03 mm | - | - | - |
| 1778022948 | 20° C | 57% | 972.6 hPa | 0 mm | - | - | - |
| 1778022018 | 20° C | 53% | 971.9 hPa | 0 mm | - | - | - |
| 1778021118 | 21.11° C | 50% | 971.9 hPa | 0 mm | - | - | - |
| 1778020218 | 21.67° C | 50% | 971.9 hPa | 0 mm | - | - | - |
| 1778019288 | 21.67° C | 52% | 971.6 hPa | 0 mm | - | - | - |
| 1778018388 | 22.22° C | 49% | 972.2 hPa | 0 mm | - | - | - |
| 1778017489 | 22.78° C | 47% | 972.2 hPa | 0 mm | - | - | - |
| 1778016588 | 22.78° C | 46% | 972 hPa | 0 mm | - | - | - |
| 1778015688 | 22.78° C | 47% | 971.8 hPa | 0 mm | - | - | - |
| 1778014788 | 22.78° C | 47% | 971.6 hPa | 0 mm | - | - | - |
| 1778013888 | 22.78° C | 49% | 971.9 hPa | 0 mm | - | - | - |
| 1778012988 | 22.78° C | 50% | 972.6 hPa | 0 mm | - | - | - |
| 1778012087 | 22.22° C | 49% | 972.6 hPa | 0 mm | - | - | - |
| 1778011188 | 22.22° C | 48% | 972.9 hPa | 0 mm | - | - | - |
| 1778010287 | 22.78° C | 48% | 973.2 hPa | 0 mm | - | - | - |
| 1778009388 | 22.22° C | 49% | 973.2 hPa | 0 mm | - | - | - |
| 1778008487 | 21.67° C | 51% | 973.9 hPa | 0 mm | - | - | - |
* Rain latest hour (hover to see other rain measurements)
** Current wind speed in m/s (hover to see current wind gust speed)